createdAt,value
2022-09-03T00:02:26.915Z,7.80
2022-09-03T00:05:00.999Z,7.80
2022-09-03T00:07:35.609Z,7.80
2022-09-03T00:10:04.939Z,7.90
2022-09-03T00:12:39.747Z,8.00
2022-09-03T00:15:10.797Z,8.10
2022-09-03T00:17:49.873Z,8.20
2022-09-03T00:20:39.396Z,8.20
2022-09-03T00:23:08.619Z,8.20
2022-09-03T00:25:41.083Z,8.20
2022-09-03T00:28:30.165Z,8.20
2022-09-03T00:31:12.020Z,8.20
2022-09-03T00:33:40.734Z,8.10
2022-09-03T00:36:15.125Z,8.10
2022-09-03T00:38:42.168Z,8.10
2022-09-03T00:41:17.298Z,8.00
2022-09-03T00:43:58.134Z,8.00
2022-09-03T00:46:31.142Z,8.10
2022-09-03T00:49:14.405Z,8.10
2022-09-03T00:51:50.273Z,8.00
2022-09-03T00:54:25.612Z,8.00
2022-09-03T00:56:59.490Z,7.90
2022-09-03T00:59:26.399Z,7.90
2022-09-03T01:02:06.263Z,7.80
2022-09-03T01:04:33.257Z,7.90
2022-09-03T01:07:12.343Z,7.80
2022-09-03T01:09:39.278Z,7.80
2022-09-03T01:12:18.399Z,7.80
2022-09-03T01:15:04.436Z,7.80
2022-09-03T01:17:52.025Z,7.80
2022-09-03T01:20:26.146Z,7.80
2022-09-03T01:22:57.553Z,7.80
2022-09-03T01:25:24.387Z,7.80
2022-09-03T01:28:11.497Z,7.80
2022-09-03T01:30:40.214Z,7.80
2022-09-03T01:33:07.210Z,7.80
2022-09-03T01:35:49.607Z,7.90
2022-09-03T01:38:20.808Z,7.80
2022-09-03T01:41:25.424Z,7.70
2022-09-03T01:43:59.321Z,7.70
2022-09-03T01:46:30.350Z,7.70
2022-09-03T01:49:00.349Z,7.60
2022-09-03T01:51:30.766Z,7.60
2022-09-03T01:54:21.094Z,7.60
2022-09-03T01:57:07.295Z,7.70
2022-09-03T01:59:53.416Z,7.70
2022-09-03T02:02:21.838Z,7.80
2022-09-03T02:04:58.168Z,7.80
2022-09-03T02:07:25.764Z,7.80
2022-09-03T02:09:52.622Z,7.80
2022-09-03T02:12:20.689Z,7.80
2022-09-03T02:14:48.535Z,7.80
2022-09-03T02:17:15.548Z,7.70
2022-09-03T02:19:42.629Z,7.70
2022-09-03T02:22:09.672Z,7.70
2022-09-03T02:24:36.618Z,7.70
2022-09-03T02:27:03.991Z,7.70
2022-09-03T02:29:31.088Z,7.80
2022-09-03T02:31:58.212Z,7.80
2022-09-03T02:34:25.194Z,7.90
2022-09-03T02:36:52.731Z,7.90
2022-09-03T02:39:19.653Z,8.00
2022-09-03T02:41:52.180Z,8.00
2022-09-03T02:44:28.255Z,8.00
2022-09-03T02:46:59.603Z,8.00
2022-09-03T02:49:28.344Z,8.00
2022-09-03T02:52:00.911Z,8.10
2022-09-03T02:54:33.390Z,8.10
2022-09-03T02:57:00.403Z,8.10
2022-09-03T02:59:29.816Z,8.10
2022-09-03T03:01:56.720Z,8.10
2022-09-03T03:04:28.129Z,8.10
2022-09-03T03:06:55.260Z,8.20
2022-09-03T03:09:22.353Z,8.20
2022-09-03T03:11:51.387Z,8.20
2022-09-03T03:14:18.819Z,8.20
2022-09-03T03:16:46.039Z,8.20
2022-09-03T03:19:13.007Z,8.20
2022-09-03T03:21:39.962Z,8.30
2022-09-03T03:24:07.225Z,8.30
2022-09-03T03:26:34.104Z,8.40
2022-09-03T03:29:04.739Z,8.40
2022-09-03T03:31:32.366Z,8.50
2022-09-03T03:34:00.630Z,8.50
2022-09-03T03:36:29.106Z,8.50
2022-09-03T03:38:57.178Z,8.40
2022-09-03T03:41:25.591Z,8.40
2022-09-03T03:43:53.511Z,8.50
2022-09-03T03:46:20.806Z,8.50
2022-09-03T03:48:48.741Z,8.60
2022-09-03T03:51:15.645Z,8.60
2022-09-03T03:53:42.915Z,8.70
2022-09-03T03:56:11.279Z,8.70
2022-09-03T03:58:42.172Z,8.80
2022-09-03T04:01:10.452Z,8.90
2022-09-03T04:03:37.646Z,8.90
2022-09-03T04:06:05.207Z,8.90
2022-09-03T04:08:34.606Z,9.00
2022-09-03T04:11:02.619Z,9.00
2022-09-03T04:13:33.220Z,9.00
2022-09-03T04:16:07.742Z,9.00
2022-09-03T04:18:35.675Z,8.90
2022-09-03T04:21:04.519Z,8.80
2022-09-03T04:23:32.326Z,8.90
2022-09-03T04:25:59.549Z,8.90
2022-09-03T04:28:26.681Z,8.90
2022-09-03T04:30:53.950Z,8.90
2022-09-03T04:33:21.340Z,9.00
2022-09-03T04:35:48.589Z,9.00
2022-09-03T04:38:15.746Z,9.00
2022-09-03T04:40:42.821Z,9.00
2022-09-03T04:43:09.812Z,9.10
2022-09-03T04:45:36.756Z,9.10
2022-09-03T04:48:04.343Z,9.10
2022-09-03T04:50:32.995Z,9.20
2022-09-03T04:53:03.524Z,9.20
2022-09-03T04:55:35.418Z,9.30
2022-09-03T04:58:02.348Z,9.20
2022-09-03T05:00:29.381Z,9.30
2022-09-03T05:02:56.240Z,9.30
2022-09-03T05:05:23.180Z,9.30
2022-09-03T05:07:50.209Z,9.30
2022-09-03T05:10:20.475Z,9.30
2022-09-03T05:12:48.600Z,9.30
2022-09-03T05:15:15.988Z,9.40
2022-09-03T05:17:42.798Z,9.50
2022-09-03T05:20:10.226Z,9.50
2022-09-03T05:22:37.119Z,9.50
2022-09-03T05:25:04.370Z,9.60
2022-09-03T05:27:31.380Z,9.70
2022-09-03T05:29:58.359Z,9.70
2022-09-03T05:32:28.378Z,9.70
2022-09-03T05:34:55.424Z,9.80
2022-09-03T05:37:23.532Z,9.90
2022-09-03T05:39:50.743Z,9.90
2022-09-03T05:42:17.872Z,9.90
2022-09-03T05:44:45.021Z,10.00
2022-09-03T05:47:11.999Z,10.00
2022-09-03T05:49:39.699Z,9.90
2022-09-03T05:52:06.715Z,9.90
2022-09-03T05:54:33.661Z,10.00
2022-09-03T05:57:01.181Z,10.00
2022-09-03T05:59:28.280Z,10.00
2022-09-03T06:01:59.435Z,10.10
2022-09-03T06:04:27.120Z,10.10
2022-09-03T06:06:54.016Z,10.20
2022-09-03T06:09:23.117Z,10.30
2022-09-03T06:11:52.506Z,10.30
2022-09-03T06:14:19.916Z,10.40
2022-09-03T06:16:49.633Z,10.50
2022-09-03T06:19:17.196Z,10.50
2022-09-03T06:21:44.674Z,10.60
2022-09-03T06:24:19.000Z,10.70
2022-09-03T06:26:47.269Z,10.80
2022-09-03T06:29:14.310Z,10.80
2022-09-03T06:31:41.519Z,10.90
2022-09-03T06:34:08.613Z,10.90
2022-09-03T06:36:35.449Z,11.00
2022-09-03T06:39:02.322Z,11.10
2022-09-03T06:41:32.015Z,11.10
2022-09-03T06:44:03.388Z,11.20
2022-09-03T06:46:32.118Z,11.20
2022-09-03T06:48:59.150Z,11.30
2022-09-03T06:51:27.024Z,11.30
2022-09-03T06:53:56.463Z,11.40
2022-09-03T06:56:26.607Z,11.40
2022-09-03T06:58:54.472Z,11.50
2022-09-03T07:01:23.497Z,11.50
2022-09-03T07:03:53.002Z,11.60
2022-09-03T07:06:20.154Z,11.60
2022-09-03T07:08:47.136Z,11.70
2022-09-03T07:11:15.434Z,11.70
2022-09-03T07:13:44.332Z,11.70
2022-09-03T07:16:12.391Z,11.80
2022-09-03T07:18:39.488Z,11.80
2022-09-03T07:21:10.371Z,11.90
2022-09-03T07:23:37.871Z,11.90
2022-09-03T07:26:06.662Z,11.90
2022-09-03T07:28:34.537Z,12.00
2022-09-03T07:31:03.365Z,12.00
2022-09-03T07:33:33.810Z,12.00
2022-09-03T07:36:11.413Z,12.00
2022-09-03T07:38:38.477Z,12.00
2022-09-03T07:41:06.365Z,12.10
2022-09-03T07:43:37.495Z,12.10
2022-09-03T07:46:04.600Z,12.10
2022-09-03T07:48:36.705Z,12.20
2022-09-03T07:51:04.298Z,12.20
2022-09-03T07:53:31.236Z,12.20
2022-09-03T07:56:02.228Z,12.30
2022-09-03T07:58:33.086Z,12.30
2022-09-03T08:01:04.132Z,12.40
2022-09-03T08:03:31.095Z,12.40
2022-09-03T08:06:01.127Z,12.50
2022-09-03T08:08:28.094Z,12.60
2022-09-03T08:11:11.286Z,12.60
2022-09-03T08:13:44.935Z,12.50
2022-09-03T08:16:12.850Z,12.60
2022-09-03T08:18:40.168Z,12.70
2022-09-03T08:21:08.328Z,12.70
2022-09-03T08:23:38.587Z,12.80
2022-09-03T08:26:07.024Z,12.80
2022-09-03T08:28:34.549Z,12.80
2022-09-03T08:31:07.826Z,12.80
2022-09-03T08:33:37.667Z,12.90
2022-09-03T08:36:05.523Z,12.90
2022-09-03T08:38:36.546Z,12.90
2022-09-03T08:41:04.603Z,12.90
2022-09-03T08:43:32.314Z,13.00
2022-09-03T08:46:00.229Z,13.00
2022-09-03T08:48:28.530Z,13.10
2022-09-03T08:50:59.980Z,13.10
2022-09-03T08:53:30.555Z,13.10
2022-09-03T08:56:03.158Z,13.20
2022-09-03T08:58:32.464Z,13.20
2022-09-03T09:01:02.529Z,13.20
2022-09-03T09:03:47.994Z,13.30
2022-09-03T09:06:30.341Z,13.30
2022-09-03T09:08:57.188Z,13.30
2022-09-03T09:11:36.270Z,13.30
2022-09-03T09:14:04.194Z,13.30
2022-09-03T09:16:41.061Z,13.40
2022-09-03T09:19:17.742Z,13.40
2022-09-03T09:21:54.341Z,13.40
2022-09-03T09:24:28.689Z,13.50
2022-09-03T09:26:58.365Z,13.50
2022-09-03T09:29:28.035Z,13.50
2022-09-03T09:31:55.534Z,13.60
2022-09-03T09:34:22.498Z,13.60
2022-09-03T09:36:50.859Z,13.60
2022-09-03T09:39:17.918Z,13.70
2022-09-03T09:41:57.381Z,13.70
2022-09-03T09:44:25.590Z,13.70
2022-09-03T09:47:03.791Z,13.70
2022-09-03T09:49:35.829Z,13.80
2022-09-03T09:52:12.167Z,13.70
2022-09-03T09:54:40.329Z,13.80
2022-09-03T09:57:08.964Z,13.80
2022-09-03T09:59:38.207Z,13.90
2022-09-03T10:02:10.674Z,13.90
2022-09-03T10:04:44.052Z,13.90
2022-09-03T10:07:23.230Z,13.90
2022-09-03T10:10:00.648Z,13.90
2022-09-03T10:12:32.227Z,13.90
2022-09-03T10:15:03.811Z,13.90
2022-09-03T10:17:44.329Z,13.90
2022-09-03T10:20:28.127Z,14.00
2022-09-03T10:22:57.300Z,14.00
2022-09-03T10:25:26.600Z,14.10
2022-09-03T10:27:54.693Z,14.20
2022-09-03T10:30:23.021Z,14.20
2022-09-03T10:32:59.608Z,14.30
2022-09-03T10:35:28.452Z,14.30
2022-09-03T10:37:58.490Z,14.30
2022-09-03T10:40:33.507Z,14.40
2022-09-03T10:43:00.494Z,14.40
2022-09-03T10:45:29.110Z,14.40
2022-09-03T10:48:14.832Z,14.40
2022-09-03T10:50:49.939Z,14.40
2022-09-03T10:53:16.783Z,14.40
2022-09-03T10:55:46.691Z,14.40
2022-09-03T10:58:16.749Z,14.40
2022-09-03T11:00:52.304Z,14.40
2022-09-03T11:03:20.904Z,14.40
2022-09-03T11:06:03.109Z,14.30
2022-09-03T11:08:52.982Z,14.30
2022-09-03T11:11:26.701Z,14.40
2022-09-03T11:13:57.456Z,14.40
2022-09-03T11:16:27.326Z,14.40
2022-09-03T11:18:56.097Z,14.30
2022-09-03T11:21:27.094Z,14.40
2022-09-03T11:24:13.673Z,14.40
2022-09-03T11:26:44.303Z,14.40
2022-09-03T11:29:32.948Z,14.50
2022-09-03T11:32:00.025Z,14.50
2022-09-03T11:34:32.598Z,14.60
2022-09-03T11:37:21.434Z,14.70
2022-09-03T11:40:17.722Z,14.80
2022-09-03T11:42:45.177Z,14.80
2022-09-03T11:45:21.229Z,14.80
2022-09-03T11:47:49.095Z,14.90
2022-09-03T11:50:21.288Z,14.90
2022-09-03T11:52:49.788Z,14.80
2022-09-03T11:55:37.519Z,14.90
2022-09-03T11:58:33.206Z,14.90
2022-09-03T12:01:01.731Z,14.80
2022-09-03T12:03:45.976Z,14.90
2022-09-03T12:06:31.697Z,14.90
2022-09-03T12:09:01.651Z,14.90
2022-09-03T12:11:35.852Z,15.00
2022-09-03T12:14:05.464Z,15.00
2022-09-03T12:16:38.279Z,15.00
2022-09-03T12:19:12.751Z,15.00
2022-09-03T12:21:41.175Z,15.00
2022-09-03T12:24:12.036Z,15.10
2022-09-03T12:26:40.052Z,15.10
2022-09-03T12:29:06.977Z,15.10
2022-09-03T12:31:47.028Z,15.00
2022-09-03T12:34:15.581Z,15.00
2022-09-03T12:36:44.064Z,15.00
2022-09-03T12:39:13.124Z,15.00
2022-09-03T12:41:53.073Z,15.00
2022-09-03T12:44:30.257Z,15.00
2022-09-03T12:49:49.693Z,15.10
2022-09-03T12:52:37.378Z,15.00
2022-09-03T12:55:09.020Z,14.90
2022-09-03T12:57:41.248Z,14.90
2022-09-03T13:00:10.259Z,14.80
2022-09-03T13:02:53.969Z,14.90
2022-09-03T13:05:22.394Z,14.90
2022-09-03T13:07:53.217Z,14.90
2022-09-03T13:10:28.115Z,15.00
2022-09-03T13:12:59.233Z,14.90
2022-09-03T13:15:26.404Z,14.90
2022-09-03T13:18:02.820Z,15.00
2022-09-03T13:20:29.678Z,15.00
2022-09-03T13:23:02.272Z,15.00
2022-09-03T13:25:29.285Z,15.00
2022-09-03T13:27:58.000Z,15.00
2022-09-03T13:30:31.362Z,14.90
2022-09-03T13:33:01.994Z,14.90
2022-09-03T13:35:40.473Z,14.90
2022-09-03T13:38:21.230Z,14.90
2022-09-03T13:40:52.453Z,14.80
2022-09-03T13:43:31.244Z,14.80
2022-09-03T13:46:02.228Z,14.80
2022-09-03T13:48:47.395Z,14.80
2022-09-03T13:51:18.090Z,14.80
2022-09-03T13:53:49.117Z,14.90
2022-09-03T13:56:18.852Z,14.90
2022-09-03T13:58:49.312Z,14.90
2022-09-03T14:01:27.630Z,14.90
2022-09-03T14:04:01.840Z,14.90
2022-09-03T14:06:34.840Z,14.90
2022-09-03T14:09:09.520Z,14.80
2022-09-03T14:11:36.514Z,14.80
2022-09-03T14:14:16.854Z,14.80
2022-09-03T14:16:56.965Z,14.80
2022-09-03T14:19:32.349Z,14.80
2022-09-03T14:22:01.518Z,14.80
2022-09-03T14:24:36.628Z,14.80
2022-09-03T14:27:04.782Z,14.80
2022-09-03T14:29:32.603Z,14.90
2022-09-03T14:32:05.981Z,14.80
2022-09-03T14:34:52.319Z,14.80
2022-09-03T14:37:37.563Z,14.80
2022-09-03T14:40:23.468Z,14.80
2022-09-03T14:43:00.534Z,14.80
2022-09-03T14:45:50.802Z,14.80
2022-09-03T14:48:29.776Z,14.70
2022-09-03T14:50:56.807Z,14.60
2022-09-03T14:53:34.552Z,14.60
2022-09-03T14:56:06.468Z,14.50
2022-09-03T14:58:47.143Z,14.50
2022-09-03T15:01:17.851Z,14.60
2022-09-03T15:03:55.552Z,14.60
2022-09-03T15:06:34.621Z,14.70
2022-09-03T15:09:09.936Z,14.50
2022-09-03T15:11:47.012Z,14.40
2022-09-03T15:14:15.946Z,14.50
2022-09-03T15:16:49.110Z,14.60
2022-09-03T15:19:33.186Z,14.50
2022-09-03T15:22:09.024Z,14.50
2022-09-03T15:25:11.525Z,14.40
2022-09-03T15:27:56.938Z,14.50
2022-09-03T15:30:24.458Z,14.30
2022-09-03T15:32:59.117Z,14.40
2022-09-03T15:35:26.126Z,14.40
2022-09-03T15:37:54.906Z,14.40
2022-09-03T15:40:40.275Z,14.30
2022-09-03T15:43:21.959Z,14.40
2022-09-03T15:45:49.114Z,14.30
2022-09-03T15:48:27.226Z,14.30
2022-09-03T15:51:12.244Z,14.40
2022-09-03T15:53:42.080Z,14.30
2022-09-03T15:56:14.563Z,14.20
2022-09-03T15:58:47.585Z,14.10
2022-09-03T16:01:20.706Z,14.10
2022-09-03T16:03:58.594Z,14.10
2022-09-03T16:06:37.493Z,14.10
2022-09-03T16:09:27.903Z,14.20
2022-09-03T16:12:13.597Z,14.10
2022-09-03T16:14:45.226Z,14.10
2022-09-03T16:17:15.356Z,14.10
2022-09-03T16:19:57.454Z,14.10
2022-09-03T16:22:28.768Z,14.10
2022-09-03T16:24:55.746Z,13.90
2022-09-03T16:27:42.881Z,13.90
2022-09-03T16:30:11.492Z,13.80
2022-09-03T16:32:38.332Z,13.80
2022-09-03T16:35:26.476Z,13.80
2022-09-03T16:37:53.325Z,13.80
2022-09-03T16:40:49.905Z,13.80
2022-09-03T16:43:44.075Z,13.70
2022-09-03T16:46:26.072Z,13.60
2022-09-03T16:49:11.756Z,13.50
2022-09-03T16:51:41.791Z,13.50
2022-09-03T16:54:09.360Z,13.50
2022-09-03T16:56:48.011Z,13.50
2022-09-03T16:59:33.748Z,13.50
2022-09-03T17:02:39.616Z,13.40
2022-09-03T17:05:12.850Z,13.40
2022-09-03T17:07:50.511Z,13.40
2022-09-03T17:10:23.608Z,13.40
2022-09-03T17:13:09.948Z,13.40
2022-09-03T17:15:36.891Z,13.40
2022-09-03T17:18:11.418Z,13.40
2022-09-03T17:20:38.491Z,13.40
2022-09-03T17:23:06.081Z,13.40
2022-09-03T17:25:34.419Z,13.40
2022-09-03T17:28:16.187Z,13.50
2022-09-03T17:31:06.037Z,13.50
2022-09-03T17:33:45.677Z,13.50
2022-09-03T17:36:13.499Z,13.50
2022-09-03T17:38:58.926Z,13.40
2022-09-03T17:41:41.186Z,13.40
2022-09-03T17:44:16.880Z,13.40
2022-09-03T17:47:02.624Z,13.40
2022-09-03T17:49:32.443Z,13.50
2022-09-03T17:52:03.182Z,13.40
2022-09-03T17:54:44.153Z,13.40
2022-09-03T17:57:13.931Z,13.50
2022-09-03T17:59:40.957Z,13.50
2022-09-03T18:02:14.264Z,13.50
2022-09-03T18:04:45.755Z,13.60
2022-09-03T18:07:23.812Z,13.60
2022-09-03T18:10:09.282Z,13.50
2022-09-03T18:12:59.778Z,13.60
2022-09-03T18:15:38.101Z,13.60
2022-09-03T18:18:10.989Z,13.50
2022-09-03T18:21:23.218Z,13.50
2022-09-03T18:24:29.880Z,13.40
2022-09-03T18:27:17.914Z,13.40
2022-09-03T18:30:08.926Z,13.40
2022-09-03T18:32:54.296Z,13.40
2022-09-03T18:35:39.666Z,13.40
2022-09-03T18:38:25.074Z,13.40
2022-09-03T18:41:32.754Z,13.40
2022-09-03T18:44:37.012Z,13.40
2022-09-03T18:50:43.336Z,13.40
2022-09-03T18:53:32.395Z,13.40
2022-09-03T18:56:26.565Z,13.40
2022-09-03T18:59:15.012Z,13.40
2022-09-03T19:02:01.582Z,13.40
2022-09-03T19:05:06.305Z,13.30
2022-09-03T19:07:51.830Z,13.40
2022-09-03T19:10:41.566Z,13.40
2022-09-03T19:13:37.233Z,13.40
2022-09-03T19:16:31.366Z,13.40
2022-09-03T19:19:19.962Z,13.40
2022-09-03T19:22:08.423Z,13.40
2022-09-03T19:24:54.269Z,13.40
2022-09-03T19:28:00.416Z,13.40
2022-09-03T19:30:50.830Z,13.40
2022-09-03T19:33:39.407Z,13.40
2022-09-03T19:36:31.698Z,13.30
2022-09-03T19:39:34.085Z,13.20
2022-09-03T19:42:48.706Z,13.20
2022-09-03T19:45:57.261Z,13.10
2022-09-03T19:48:43.078Z,13.20
2022-09-03T19:51:32.088Z,13.10
2022-09-03T19:54:18.458Z,13.10
2022-09-03T19:57:04.573Z,13.20
2022-09-03T19:59:53.275Z,13.20
2022-09-03T20:02:39.029Z,13.10
2022-09-03T20:05:26.205Z,13.10
2022-09-03T20:08:13.808Z,13.20
2022-09-03T20:10:42.260Z,13.10
2022-09-03T20:13:13.756Z,13.00
2022-09-03T20:15:49.605Z,13.00
2022-09-03T20:18:35.487Z,13.00
2022-09-03T20:21:02.381Z,12.90
2022-09-03T20:23:55.072Z,12.80
2022-09-03T20:26:34.542Z,12.80
2022-09-03T20:29:01.538Z,12.80
2022-09-03T20:31:28.402Z,12.70
2022-09-03T20:34:01.304Z,12.70
2022-09-03T20:36:28.681Z,12.60
2022-09-03T20:38:55.608Z,12.70
2022-09-03T20:41:48.903Z,12.60
2022-09-03T20:44:18.517Z,12.60
2022-09-03T20:47:00.705Z,12.70
2022-09-03T20:49:46.318Z,12.70
2022-09-03T20:52:21.222Z,12.70
2022-09-03T20:55:04.213Z,12.60
2022-09-03T20:57:34.014Z,12.60
2022-09-03T21:00:21.049Z,12.50
2022-09-03T21:03:05.691Z,12.50
2022-09-03T21:05:43.631Z,12.50
2022-09-03T21:08:19.866Z,12.40
2022-09-03T21:10:56.167Z,12.40
2022-09-03T21:13:28.937Z,12.40
2022-09-03T21:16:15.372Z,12.30
2022-09-03T21:19:00.724Z,12.30
2022-09-03T21:21:38.649Z,12.30
2022-09-03T21:24:08.943Z,12.30
2022-09-03T21:26:41.938Z,12.30
2022-09-03T21:29:22.358Z,12.20
2022-09-03T21:31:49.604Z,12.20
2022-09-03T21:34:40.069Z,12.20
2022-09-03T21:37:09.194Z,12.20
2022-09-03T21:39:43.562Z,12.20
2022-09-03T21:42:29.326Z,12.20
2022-09-03T21:44:56.291Z,12.10
2022-09-03T21:47:25.122Z,12.10
2022-09-03T21:49:54.811Z,12.10
2022-09-03T21:52:37.482Z,12.10
2022-09-03T21:55:10.973Z,12.10
2022-09-03T21:57:52.637Z,12.10
2022-09-03T22:00:29.906Z,12.10
2022-09-03T22:02:59.327Z,12.10
2022-09-03T22:05:32.495Z,12.10
2022-09-03T22:08:17.705Z,12.00
2022-09-03T22:10:51.323Z,12.00
2022-09-03T22:13:27.610Z,12.10
2022-09-03T22:16:01.703Z,12.10
2022-09-03T22:18:36.961Z,12.10
2022-09-03T22:21:13.392Z,12.10
2022-09-03T22:23:46.775Z,12.10
2022-09-03T22:26:20.444Z,12.10
2022-09-03T22:28:57.916Z,12.10
2022-09-03T22:31:24.880Z,12.20
2022-09-03T22:33:59.255Z,12.20
2022-09-03T22:36:40.466Z,12.20
2022-09-03T22:39:22.466Z,12.20
2022-09-03T22:41:53.414Z,12.10
2022-09-03T22:44:47.172Z,12.20
2022-09-03T22:47:33.752Z,12.10
2022-09-03T22:50:13.317Z,12.20
2022-09-03T22:52:46.235Z,12.20
2022-09-03T22:55:18.615Z,12.10
2022-09-03T22:58:04.308Z,12.10
2022-09-03T23:00:32.716Z,12.10
2022-09-03T23:03:03.373Z,12.20
2022-09-03T23:05:41.033Z,12.10
2022-09-03T23:08:23.424Z,12.20
2022-09-03T23:10:54.023Z,12.20
2022-09-03T23:13:26.876Z,12.20
2022-09-03T23:16:09.678Z,12.20
2022-09-03T23:18:38.120Z,12.10
2022-09-03T23:21:28.412Z,12.20
2022-09-03T23:24:07.742Z,12.10
2022-09-03T23:26:44.390Z,12.20
2022-09-03T23:29:16.098Z,12.20
2022-09-03T23:31:43.489Z,12.10
2022-09-03T23:34:11.426Z,12.10
2022-09-03T23:37:01.363Z,12.10
2022-09-03T23:39:44.983Z,12.10
2022-09-03T23:42:25.366Z,12.10
2022-09-03T23:44:58.467Z,12.10
2022-09-03T23:47:34.709Z,12.20
2022-09-03T23:50:10.447Z,12.20
2022-09-03T23:52:45.166Z,12.20
2022-09-03T23:55:21.273Z,12.10
2022-09-03T23:57:54.344Z,12.10
